createdAt,value
2022-10-13T00:00:32.679Z,4.6
2022-10-13T00:05:40.383Z,4.7
2022-10-13T00:10:48.070Z,4.6
2022-10-13T00:15:55.792Z,4.8
2022-10-13T00:21:03.512Z,4.4
2022-10-13T00:26:11.237Z,4.3
2022-10-13T00:31:18.990Z,4.7
2022-10-13T00:36:26.737Z,4.6
2022-10-13T00:46:42.443Z,4.5
2022-10-13T00:51:50.318Z,4.6
2022-10-13T00:56:58.184Z,4.6
2022-10-13T01:02:06.032Z,4.6
2022-10-13T01:07:13.897Z,4.8
2022-10-13T01:12:21.756Z,4.6
2022-10-13T01:17:29.577Z,4.7
2022-10-13T01:22:37.441Z,4.3
2022-10-13T01:27:45.314Z,4.9
2022-10-13T01:32:53.206Z,4.4
2022-10-13T01:38:01.090Z,4.6
2022-10-13T01:43:08.984Z,4.9
2022-10-13T01:48:17.081Z,5
2022-10-13T01:53:25.160Z,4.5
2022-10-13T01:58:33.279Z,4.7
2022-10-13T02:03:41.382Z,4.6
2022-10-13T02:08:49.467Z,5.1
2022-10-13T02:13:57.550Z,5.2
2022-10-13T02:19:05.619Z,5.4
2022-10-13T02:24:13.702Z,5.6
2022-10-13T02:29:21.741Z,5.9
2022-10-13T02:34:29.771Z,6
2022-10-13T02:39:37.791Z,6.4
2022-10-13T02:44:45.789Z,6.8
2022-10-13T02:49:53.790Z,6.9
2022-10-13T02:55:02.395Z,7
2022-10-13T03:00:10.980Z,6.9
2022-10-13T03:05:19.608Z,6.8
2022-10-13T03:10:28.152Z,7
2022-10-13T03:15:36.788Z,6.8
2022-10-13T03:20:45.319Z,6.8
2022-10-13T03:25:53.885Z,6.8
2022-10-13T03:31:02.465Z,6.5
2022-10-13T03:36:11.062Z,6.4
2022-10-13T03:41:19.602Z,6.6
2022-10-13T03:46:28.181Z,6.6
2022-10-13T03:51:36.757Z,6.9
2022-10-13T03:56:45.335Z,7.2
2022-10-13T04:01:54.906Z,7.2
2022-10-13T04:07:02.545Z,7.2
2022-10-13T04:12:10.150Z,7.3
2022-10-13T04:17:17.715Z,7.4
2022-10-13T04:22:25.259Z,7.5
2022-10-13T04:27:32.796Z,7.8
2022-10-13T04:32:40.386Z,7.8
2022-10-13T04:37:47.943Z,8.1
2022-10-13T04:42:55.482Z,8
2022-10-13T04:48:03.055Z,8
2022-10-13T04:53:10.603Z,8
2022-10-13T04:58:18.120Z,7.9
2022-10-13T05:03:25.623Z,7.8
2022-10-13T05:08:33.162Z,7.3
2022-10-13T05:13:40.675Z,7.3
2022-10-13T05:18:48.200Z,7.1
2022-10-13T05:23:55.731Z,7.2
2022-10-13T05:29:03.253Z,7.5
2022-10-13T05:34:10.801Z,8.1
2022-10-13T05:39:18.294Z,8.3
2022-10-13T05:44:25.797Z,8.6
2022-10-13T05:49:33.284Z,8.8
2022-10-13T05:54:40.801Z,8.8
2022-10-13T05:59:48.235Z,8.9
2022-10-13T06:04:55.781Z,9.1
2022-10-13T06:10:03.208Z,9.4
2022-10-13T06:15:10.800Z,9.7
2022-10-13T06:20:18.353Z,10
2022-10-13T06:25:25.878Z,10.1
2022-10-13T06:30:33.404Z,10.6
2022-10-13T06:40:48.447Z,11
2022-10-13T06:45:55.920Z,11.6
2022-10-13T06:51:03.400Z,11.8
2022-10-13T06:56:10.875Z,11.5
2022-10-13T07:01:18.313Z,11.7
2022-10-13T07:06:25.817Z,11.9
2022-10-13T07:11:33.172Z,11.9
2022-10-13T07:16:40.663Z,12.4
2022-10-13T07:21:48.236Z,13.2
2022-10-13T07:26:55.875Z,13.2
2022-10-13T07:32:03.435Z,13.9
2022-10-13T07:37:10.935Z,14.6
2022-10-13T07:42:18.429Z,13.7
2022-10-13T07:47:25.901Z,14
2022-10-13T07:52:33.442Z,13.3
2022-10-13T07:57:40.807Z,12.9
2022-10-13T08:02:48.282Z,12.7
2022-10-13T08:07:55.853Z,13.3
2022-10-13T08:13:03.293Z,13.1
2022-10-13T08:18:10.799Z,14
2022-10-13T08:23:18.225Z,13.1
2022-10-13T08:28:26.320Z,13
2022-10-13T08:33:33.055Z,13.1
2022-10-13T08:38:40.157Z,13.3
2022-10-13T08:43:47.274Z,13.9
2022-10-13T08:48:54.368Z,14
2022-10-13T08:54:01.489Z,15.2
2022-10-13T08:59:08.615Z,17.1
2022-10-13T09:04:15.689Z,18
2022-10-13T09:09:22.694Z,17.6
2022-10-13T09:14:29.715Z,17
2022-10-13T09:19:36.714Z,16.7
2022-10-13T09:24:43.703Z,16.7
2022-10-13T09:29:50.689Z,15.5
2022-10-13T09:34:57.658Z,15.7
2022-10-13T09:40:04.563Z,16.2
2022-10-13T09:45:11.569Z,15.7
2022-10-13T09:50:18.513Z,16.2
2022-10-13T09:55:25.488Z,16.3
2022-10-13T10:00:32.414Z,18.2
2022-10-13T10:05:39.374Z,18
2022-10-13T10:10:46.336Z,17.8
2022-10-13T10:15:53.186Z,16.9
2022-10-13T10:21:00.100Z,17.6
2022-10-13T10:26:07.004Z,17.9
2022-10-13T10:31:13.918Z,17.2
2022-10-13T10:36:20.868Z,18.1
2022-10-13T10:41:27.965Z,17.7
2022-10-13T10:46:34.963Z,17.3
2022-10-13T10:51:42.032Z,17
2022-10-13T10:56:49.094Z,16.8
2022-10-13T11:01:56.166Z,17.2
2022-10-13T11:07:03.214Z,16.7
2022-10-13T11:12:10.369Z,17.2
2022-10-13T11:17:17.321Z,16.9
2022-10-13T11:22:24.417Z,18
2022-10-13T11:27:31.445Z,17.9
2022-10-13T11:32:38.550Z,17.7
2022-10-13T11:37:45.478Z,17.6
2022-10-13T11:42:52.520Z,18.5
2022-10-13T11:47:59.799Z,18.1
2022-10-13T11:53:07.068Z,18.7
2022-10-13T11:58:14.309Z,18.7
2022-10-13T12:03:21.556Z,18.6
2022-10-13T12:08:28.794Z,18.2
2022-10-13T12:13:36.038Z,16.9
2022-10-13T12:18:43.280Z,16.7
2022-10-13T12:23:50.549Z,17.5
2022-10-13T12:28:57.855Z,16.6
2022-10-13T12:34:05.186Z,17.3
2022-10-13T12:39:12.448Z,18
2022-10-13T12:44:19.711Z,18.7
2022-10-13T12:49:26.971Z,18.8
2022-10-13T12:54:34.843Z,20
2022-10-13T12:59:42.668Z,20.1
2022-10-13T13:04:50.491Z,20.9
2022-10-13T13:09:56.801Z,20.7
2022-10-13T13:15:03.452Z,21.5
2022-10-13T13:20:10.156Z,19.9
2022-10-13T13:25:16.814Z,21
2022-10-13T13:30:23.487Z,21.1
2022-10-13T13:35:30.153Z,19.9
2022-10-13T13:40:36.844Z,20.2
2022-10-13T13:45:43.446Z,19
2022-10-13T13:50:50.095Z,18.7
2022-10-13T13:55:56.789Z,19
2022-10-13T14:01:03.530Z,19.5
2022-10-13T14:06:10.196Z,20.1
2022-10-13T14:11:16.880Z,19.9
2022-10-13T14:16:23.534Z,17.7
2022-10-13T14:21:30.203Z,16.8
2022-10-13T14:26:36.958Z,16.6
2022-10-13T14:31:43.735Z,17
2022-10-13T14:36:50.566Z,17
2022-10-13T14:41:57.391Z,16.8
2022-10-13T14:47:04.238Z,16.6
2022-10-13T14:52:11.075Z,16.4
2022-10-13T14:57:17.922Z,16.3
2022-10-13T15:02:24.794Z,16.3
2022-10-13T15:07:31.638Z,16.3
2022-10-13T15:12:38.540Z,15.7
2022-10-13T15:17:45.435Z,15.4
2022-10-13T15:22:52.395Z,15
2022-10-13T15:27:59.401Z,14.8
2022-10-13T15:33:06.412Z,14.3
2022-10-13T15:38:13.414Z,13.6
2022-10-13T15:43:20.501Z,13.2
2022-10-13T15:48:27.681Z,12.7
2022-10-13T15:53:34.639Z,12.4
2022-10-13T15:58:41.773Z,12.2
2022-10-13T16:03:48.953Z,11.9
2022-10-13T16:08:56.117Z,11.7
2022-10-13T16:14:03.277Z,11.6
2022-10-13T16:19:10.471Z,11.4
2022-10-13T16:24:17.838Z,11.2
2022-10-13T16:29:25.191Z,10.8
2022-10-13T16:39:39.998Z,10.4
2022-10-13T16:44:47.401Z,10.1
2022-10-13T16:49:54.816Z,9.7
2022-10-13T16:55:02.279Z,9.6
2022-10-13T17:00:09.771Z,9.1
2022-10-13T17:05:17.344Z,9.1
2022-10-13T17:10:24.851Z,9
2022-10-13T17:15:32.409Z,9
2022-10-13T17:20:39.982Z,9
2022-10-13T17:25:47.542Z,9.1
2022-10-13T17:30:55.361Z,9.2
2022-10-13T17:36:03.168Z,9.2
2022-10-13T17:41:10.968Z,8.9
2022-10-13T17:46:18.770Z,8.4
2022-10-13T17:51:26.579Z,8.7
2022-10-13T17:56:34.411Z,8.9
2022-10-13T18:01:42.280Z,8.5
2022-10-13T18:06:50.098Z,8.7
2022-10-13T18:11:57.970Z,8.5
2022-10-13T18:17:05.821Z,8.8
2022-10-13T18:22:13.739Z,8.8
2022-10-13T18:27:21.485Z,8.4
2022-10-13T18:32:29.359Z,8.4
2022-10-13T18:37:37.848Z,8.2
2022-10-13T18:42:44.884Z,8.2
2022-10-13T18:47:52.367Z,7.9
2022-10-13T18:52:59.891Z,7.8
2022-10-13T18:58:07.384Z,7.9
2022-10-13T19:03:14.878Z,7.9
2022-10-13T19:08:22.343Z,7.9
2022-10-13T19:13:29.886Z,7.9
2022-10-13T19:18:37.359Z,8.2
2022-10-13T19:23:44.832Z,8.3
2022-10-13T19:28:52.322Z,8.5
2022-10-13T19:33:59.820Z,8.4
2022-10-13T19:39:07.293Z,8.2
2022-10-13T19:44:14.864Z,8.3
2022-10-13T19:49:22.392Z,8.4
2022-10-13T19:54:29.892Z,8.2
2022-10-13T19:59:37.374Z,8.2
2022-10-13T20:04:44.898Z,8.1
2022-10-13T20:09:52.386Z,8.1
2022-10-13T20:14:59.932Z,7.6
2022-10-13T20:20:07.414Z,7.8
2022-10-13T20:25:14.973Z,7.7
2022-10-13T20:30:22.505Z,7.6
2022-10-13T20:35:30.075Z,7.4
2022-10-13T20:40:37.599Z,7.3
2022-10-13T20:45:45.186Z,7.3
2022-10-13T20:50:52.862Z,7.4
2022-10-13T20:56:00.609Z,7.4
2022-10-13T21:01:08.247Z,7.3
2022-10-13T21:06:15.980Z,7.4
2022-10-13T21:11:23.666Z,7.5
2022-10-13T21:16:31.376Z,7.5
2022-10-13T21:21:39.058Z,7.8
2022-10-13T21:26:46.798Z,7.5
2022-10-13T21:31:54.433Z,7.5
2022-10-13T21:37:02.132Z,7.5
2022-10-13T21:42:09.843Z,7.9
2022-10-13T21:47:17.557Z,8.2
2022-10-13T21:52:25.245Z,7.9
2022-10-13T21:57:33.199Z,7.8
2022-10-13T22:02:41.123Z,7.9
2022-10-13T22:07:49.028Z,8.1
2022-10-13T22:12:56.933Z,8.1
2022-10-13T22:18:04.813Z,8
2022-10-13T22:23:12.720Z,7.4
2022-10-13T22:28:20.647Z,7.5
2022-10-13T22:33:28.564Z,7.1
2022-10-13T22:38:36.513Z,7.2
2022-10-13T22:43:44.430Z,6.7
2022-10-13T22:48:52.331Z,7
2022-10-13T22:54:00.280Z,6.8
2022-10-13T22:59:08.210Z,7.1
2022-10-13T23:04:16.799Z,7.1
2022-10-13T23:09:25.329Z,6.6
2022-10-13T23:14:33.882Z,6.3
2022-10-13T23:19:42.400Z,6.5
2022-10-13T23:24:50.925Z,6.4
2022-10-13T23:29:59.423Z,6.7
2022-10-13T23:35:07.978Z,6.5
2022-10-13T23:40:16.521Z,6.4
2022-10-13T23:45:25.059Z,6.4
2022-10-13T23:50:33.598Z,6.3
2022-10-13T23:55:42.140Z,6.7
